createdAt,value
2023-03-07T00:02:01.222Z,99298.63
2023-03-07T00:07:07.003Z,99298.41
2023-03-07T00:12:12.768Z,99307.40
2023-03-07T00:17:18.753Z,99306.36
2023-03-07T00:22:25.182Z,99308.76
2023-03-07T00:27:32.017Z,99305.84
2023-03-07T00:32:38.157Z,99306.33
2023-03-07T00:37:44.064Z,99307.52
2023-03-07T00:42:50.981Z,99304.82
2023-03-07T00:47:57.558Z,99298.52
2023-03-07T00:53:03.875Z,99299.73
2023-03-07T00:58:09.993Z,99300.74
2023-03-07T01:03:15.873Z,99299.02
2023-03-07T01:08:22.933Z,99298.98
2023-03-07T01:13:29.996Z,99295.36
2023-03-07T01:18:35.751Z,99291.87
2023-03-07T01:23:42.061Z,99291.95
2023-03-07T01:28:50.404Z,99293.16
2023-03-07T01:33:56.928Z,99288.93
2023-03-07T01:39:06.812Z,99285.70
2023-03-07T01:44:20.422Z,99280.58
2023-03-07T01:49:30.148Z,99278.70
2023-03-07T01:54:49.019Z,99280.09
2023-03-07T02:00:01.041Z,99276.64
2023-03-07T02:05:14.496Z,99278.02
2023-03-07T02:10:22.726Z,99282.36
2023-03-07T02:15:29.315Z,99284.52
2023-03-07T02:20:43.413Z,99284.73
2023-03-07T02:25:58.461Z,99289.02
2023-03-07T02:31:07.482Z,99290.02
2023-03-07T02:36:19.392Z,99282.80
2023-03-07T02:41:38.507Z,99280.83
2023-03-07T02:46:51.492Z,99280.67
2023-03-07T02:52:00.696Z,99279.78
2023-03-07T02:57:07.415Z,99278.45
2023-03-07T03:02:13.735Z,99279.08
2023-03-07T03:07:20.013Z,99276.46
2023-03-07T03:12:26.307Z,99278.05
2023-03-07T03:17:32.315Z,99275.07
2023-03-07T03:22:38.356Z,99274.06
2023-03-07T03:27:44.665Z,99271.34
2023-03-07T03:32:51.486Z,99273.33
2023-03-07T03:37:58.222Z,99272.55
2023-03-07T03:43:04.928Z,99271.90
2023-03-07T03:48:11.207Z,99270.75
2023-03-07T03:53:17.072Z,99274.11
2023-03-07T03:58:22.781Z,99269.50
2023-03-07T04:03:28.915Z,99268.48
2023-03-07T04:08:35.553Z,99267.83
2023-03-07T04:13:41.652Z,99271.52
2023-03-07T04:18:47.372Z,99271.55
2023-03-07T04:23:57.221Z,99270.14
2023-03-07T04:29:05.903Z,99266.98
2023-03-07T04:34:15.553Z,99265.31
2023-03-07T04:39:21.567Z,99260.95
2023-03-07T04:44:27.841Z,99263.36
2023-03-07T04:49:33.942Z,99258.10
2023-03-07T04:54:41.008Z,99255.23
2023-03-07T04:59:47.606Z,99260.94
2023-03-07T05:04:54.184Z,99265.21
2023-03-07T05:10:01.186Z,99263.76
2023-03-07T05:15:10.300Z,99262.23
2023-03-07T05:20:16.441Z,99259.12
2023-03-07T05:25:22.560Z,99254.59
2023-03-07T05:30:29.358Z,99254.42
2023-03-07T05:35:35.678Z,99257.42
2023-03-07T05:40:42.413Z,99260.08
2023-03-07T05:45:50.981Z,99263.27
2023-03-07T05:51:01.276Z,99266.04
2023-03-07T05:56:06.585Z,99272.17
2023-03-07T06:01:12.375Z,99274.88
2023-03-07T06:06:19.492Z,99281.35
2023-03-07T06:11:25.737Z,99283.33
2023-03-07T06:16:31.749Z,99284.69
2023-03-07T06:21:38.527Z,99288.05
2023-03-07T06:26:45.501Z,99280.52
2023-03-07T06:31:52.197Z,99278.30
2023-03-07T06:36:58.342Z,99275.29
2023-03-07T06:42:04.828Z,99272.92
2023-03-07T06:47:11.473Z,99273.98
2023-03-07T06:52:17.461Z,99277.32
2023-03-07T06:57:23.823Z,99277.46
2023-03-07T07:02:29.893Z,99267.58
2023-03-07T07:07:36.181Z,99265.24
2023-03-07T07:12:42.696Z,99260.69
2023-03-07T07:17:51.397Z,99252.05
2023-03-07T07:22:58.076Z,99252.27
2023-03-07T07:28:04.308Z,99247.30
2023-03-07T07:33:10.405Z,99234.54
2023-03-07T07:38:16.483Z,99233.34
2023-03-07T07:43:22.657Z,99228.74
2023-03-07T07:48:37.738Z,99220.28
2023-03-07T07:53:43.616Z,99218.02
2023-03-07T07:58:50.540Z,99217.08
2023-03-07T08:03:56.454Z,99213.19
2023-03-07T08:09:03.169Z,99210.52
2023-03-07T08:14:09.871Z,99201.88
2023-03-07T08:19:15.966Z,99200.38
2023-03-07T08:24:32.047Z,99191.38
2023-03-07T08:29:48.088Z,99189.07
2023-03-07T08:34:54.229Z,99181.40
2023-03-07T08:40:00.157Z,99175.33
2023-03-07T08:45:08.221Z,99157.91
2023-03-07T08:50:14.500Z,99148.61
2023-03-07T08:55:21.277Z,99141.79
2023-03-07T09:00:27.222Z,99142.19
2023-03-07T09:05:36.807Z,99133.07
2023-03-07T09:10:42.640Z,99130.02
2023-03-07T09:15:48.377Z,99123.98
2023-03-07T09:20:54.416Z,99121.60
2023-03-07T09:26:02.047Z,99120.13
2023-03-07T09:31:11.081Z,99113.20
2023-03-07T09:36:19.602Z,99097.61
2023-03-07T09:41:52.256Z,99096.18
2023-03-07T09:47:11.014Z,99092.00
2023-03-07T09:52:20.587Z,99086.38
2023-03-07T09:57:28.722Z,99082.77
2023-03-07T10:02:39.296Z,99082.70
2023-03-07T10:07:45.501Z,99074.05
2023-03-07T10:13:04.904Z,99064.34
2023-03-07T10:18:39.891Z,99055.18
2023-03-07T10:24:20.343Z,99040.27
2023-03-07T10:29:31.283Z,99036.59
2023-03-07T10:34:37.140Z,99032.15
2023-03-07T10:39:49.697Z,99026.34
2023-03-07T10:44:55.524Z,99020.21
2023-03-07T10:50:18.230Z,99023.66
2023-03-07T10:55:37.122Z,99013.35
2023-03-07T11:00:47.256Z,98994.92
2023-03-07T11:05:53.982Z,98987.18
2023-03-07T11:11:00.978Z,98978.97
2023-03-07T11:16:20.407Z,98969.28
2023-03-07T11:21:32.809Z,98963.73
2023-03-07T11:26:41.726Z,98949.32
2023-03-07T11:31:58.519Z,98934.70
2023-03-07T11:37:23.676Z,98920.55
2023-03-07T11:42:35.131Z,98908.27
2023-03-07T11:47:44.140Z,98907.05
2023-03-07T11:53:21.809Z,98898.64
2023-03-07T11:59:10.013Z,98891.62
2023-03-07T12:04:38.721Z,98874.95
2023-03-07T12:09:55.344Z,98853.00
2023-03-07T12:15:19.699Z,98851.83
2023-03-07T12:20:31.035Z,98856.94
2023-03-07T12:25:40.173Z,98855.14
2023-03-07T12:31:02.251Z,98843.02
2023-03-07T12:36:16.537Z,98836.41
2023-03-07T12:41:32.305Z,98830.55
2023-03-07T12:46:47.016Z,98827.96
2023-03-07T12:52:00.013Z,98818.33
2023-03-07T12:57:10.198Z,98811.44
2023-03-07T13:02:21.988Z,98798.73
2023-03-07T13:07:30.812Z,98792.33
2023-03-07T13:12:38.376Z,98789.61
2023-03-07T13:18:01.191Z,98791.09
2023-03-07T13:23:32.400Z,98788.91
2023-03-07T13:28:41.373Z,98777.98
2023-03-07T13:33:48.089Z,98771.17
2023-03-07T13:38:54.415Z,98768.57
2023-03-07T13:44:04.801Z,98768.20
2023-03-07T13:49:11.048Z,98757.50
2023-03-07T13:54:16.935Z,98750.45
2023-03-07T13:59:28.668Z,98739.03
2023-03-07T14:04:41.244Z,98731.27
2023-03-07T14:09:50.970Z,98722.67
2023-03-07T14:15:13.054Z,98716.27
2023-03-07T14:20:28.035Z,98703.96
2023-03-07T14:25:35.969Z,98704.06
2023-03-07T14:30:42.115Z,98697.15
2023-03-07T14:35:49.109Z,98691.75
2023-03-07T14:41:23.210Z,98691.66
2023-03-07T14:46:36.385Z,98683.48
2023-03-07T14:51:44.735Z,98670.61
2023-03-07T14:56:54.156Z,98665.27
2023-03-07T15:02:00.117Z,98664.38
2023-03-07T15:07:20.685Z,98654.99
2023-03-07T15:12:30.332Z,98649.70
2023-03-07T15:17:44.055Z,98649.16
2023-03-07T15:22:52.393Z,98646.61
2023-03-07T15:28:04.458Z,98649.16
2023-03-07T15:33:22.423Z,98647.63
2023-03-07T15:38:29.343Z,98641.10
2023-03-07T15:43:37.520Z,98634.90
2023-03-07T15:48:48.729Z,98627.83
2023-03-07T15:53:56.058Z,98623.23
2023-03-07T15:59:05.114Z,98621.27
2023-03-07T16:04:30.640Z,98617.24
2023-03-07T16:09:36.345Z,98614.23
2023-03-07T16:14:42.422Z,98605.89
2023-03-07T16:19:49.784Z,98599.62
2023-03-07T16:24:55.758Z,98596.83
2023-03-07T16:30:02.534Z,98592.66
2023-03-07T16:35:16.616Z,98589.60
2023-03-07T16:40:23.455Z,98586.19
2023-03-07T16:45:30.747Z,98586.68
2023-03-07T16:50:36.897Z,98584.01
2023-03-07T16:55:43.291Z,98577.39
2023-03-07T17:00:50.463Z,98578.50
2023-03-07T17:05:56.446Z,98580.42
2023-03-07T17:11:02.557Z,98580.80
2023-03-07T17:16:12.338Z,98581.69
2023-03-07T17:21:21.586Z,98578.27
2023-03-07T17:26:31.892Z,98577.58
2023-03-07T17:31:37.733Z,98573.69
2023-03-07T17:36:43.729Z,98564.80
2023-03-07T17:41:50.728Z,98557.85
2023-03-07T17:46:56.856Z,98558.78
2023-03-07T17:52:06.290Z,98557.25
2023-03-07T17:57:12.494Z,98554.39
2023-03-07T18:02:18.345Z,98555.65
2023-03-07T18:07:24.954Z,98551.00
2023-03-07T18:12:31.734Z,98545.48
2023-03-07T18:17:47.709Z,98540.04
2023-03-07T18:22:56.062Z,98537.63
2023-03-07T18:28:05.791Z,98532.98
2023-03-07T18:33:13.114Z,98529.88
2023-03-07T18:38:20.457Z,98527.80
2023-03-07T18:43:27.392Z,98525.95
2023-03-07T18:48:34.794Z,98526.52
2023-03-07T18:53:42.800Z,98529.63
2023-03-07T18:58:54.404Z,98526.86
2023-03-07T19:04:03.521Z,98527.48
2023-03-07T19:09:15.956Z,98527.06
2023-03-07T19:14:22.089Z,98529.43
2023-03-07T19:19:28.003Z,98525.59
2023-03-07T19:24:34.257Z,98524.79
2023-03-07T19:29:39.890Z,98522.67
2023-03-07T19:34:48.141Z,98520.30
2023-03-07T19:39:54.722Z,98515.83
2023-03-07T19:45:00.520Z,98510.96
2023-03-07T19:50:07.701Z,98512.48
2023-03-07T19:55:13.678Z,98512.89
2023-03-07T20:00:21.527Z,98513.38
2023-03-07T20:05:27.592Z,98517.33
2023-03-07T20:10:33.501Z,98512.46
2023-03-07T20:15:39.378Z,98506.83
2023-03-07T20:20:45.709Z,98502.80
2023-03-07T20:26:23.246Z,98494.78
2023-03-07T20:31:29.449Z,98492.55
2023-03-07T20:36:36.145Z,98485.64
2023-03-07T20:41:42.703Z,98489.72
2023-03-07T20:46:49.901Z,98488.66
2023-03-07T20:51:55.904Z,98489.60
2023-03-07T20:57:03.721Z,98477.88
2023-03-07T21:02:09.615Z,98476.89
2023-03-07T21:07:15.141Z,98477.49
2023-03-07T21:12:21.104Z,98480.40
2023-03-07T21:17:26.493Z,98476.91
2023-03-07T21:22:32.238Z,98475.48
2023-03-07T21:27:37.763Z,98478.38
2023-03-07T21:32:43.499Z,98480.48
2023-03-07T21:37:49.761Z,98475.75
2023-03-07T21:42:55.230Z,98479.65
2023-03-07T21:48:00.842Z,98484.55
2023-03-07T21:53:06.380Z,98484.96
2023-03-07T21:58:12.003Z,98491.84
2023-03-07T22:03:18.087Z,98492.23
2023-03-07T22:08:23.500Z,98496.02
2023-03-07T22:13:29.773Z,98501.82
2023-03-07T22:18:35.294Z,98509.23
2023-03-07T22:23:40.908Z,98527.42
2023-03-07T22:28:46.356Z,98566.50
2023-03-07T22:33:52.628Z,98583.38
2023-03-07T22:38:58.151Z,98588.53
2023-03-07T22:44:03.989Z,98602.76
2023-03-07T22:49:12.307Z,98600.61
2023-03-07T22:54:17.798Z,98605.96
2023-03-07T22:59:23.190Z,98607.85
2023-03-07T23:04:30.562Z,98610.50
2023-03-07T23:09:36.205Z,98616.84
2023-03-07T23:14:41.735Z,98624.73
2023-03-07T23:19:47.437Z,98624.77
2023-03-07T23:24:53.079Z,98633.16
2023-03-07T23:29:58.777Z,98635.36
2023-03-07T23:35:05.178Z,98643.10
2023-03-07T23:40:12.557Z,98650.92
2023-03-07T23:45:19.625Z,98650.62
2023-03-07T23:50:27.157Z,98654.90
2023-03-07T23:55:32.759Z,98653.84
